Alexandria, LA

7:33 PM CST on March 01, 2015 (GMT -0600)
Fort Polk | Change Station
CLOSE
Current Station
Airport
Location: Fort Polk,
Elevation: 305 ft
Nearby Weather Stations

Elev 305 ft 31.02 °N, 92.91 °W | Updated 39 minutes ago

Overcast
Overcast
60 °F
Feels Like 60 °F
N
0
Wind Variable Wind from North

Today
High -- | Low -- °F
--% Chance of Precip.
Yesterday
High -- | Low -- °F
Precip. -- in
6:36 AM 6:07 PM
Waxing Gibbous, 88% visible
Pressure 30.29 in
Visibility 3.0 miles
Clouds Overcast 400 ft
Dew Point 57 °F
Humidity 90%
Rainfall 1.56 in
Snow Depth Not available.
UV 0 out of 12
Pollen 7.00 out of 12
Air Quality Not available.
Flu Activity Not available.
METAR KBKB 020054Z AUTO 00000KT 3SM -RA BR OVC004 16/14 A3020 RMK AO2 RAB00E20B27 SLP256 P0002 T01560139 $

More Conditions Fewer Conditions

Pressure 30.29 in
Visibility 3.0 miles
Clouds Overcast 400 ft
Dew Point 57 °F
Humidity 90%
Rainfall 1.56 in
Snow Depth Not available.
UV 0 out of 12
Pollen 7.00 out of 12
Air Quality Not available.
Flu Activity Not available.
METAR KBKB 020054Z AUTO 00000KT 3SM -RA BR OVC004 16/14 A3020 RMK AO2 RAB00E20B27 SLP256 P0002 T01560139 $

More Conditions Fewer Conditions

10-Day Weather Forecast

Almanac

Astronomy

Mar. 01, 2015 Rise Set
Actual Time
Civil Twilight
Nautical Twilight
Astronomical Twilight
Moon
Length of Visible Light
Length of Day
Tomorrow will be .
, % of the Moon is Illuminated

Today's Extremes

State Highs State Lows

Community

WunderPhotos

Upload Photos

1,801,680 photos uploaded!

WunderBlogs® & News

Nearby

Air Quality

  Air Quality AQ Index Pollutant
Not available.

Snow Depth

Station Depth Elevation

Earthquake Activity

City Distance Mag. Time & Date
Minimum magnitude displayed is 2.5.

Coastal Water Temperatures

Place Temperature

Nearby Weather Stations